Latest Coastal Weather Observations for Flinders Island Airport

IDT60701

Issued at 1:42 am EDT Saturday 16 November 2019 (issued every 10 minutes, with the page automatically refreshed every 10 minutes)

About coastal observations | Map of coastal stations | Coastal observations for TAS | Marine services | Other Formats
Station Details ID: 099005 Name: FLINDERS ISLAND AIRPORT Lat: -40.09 Lon: 148.00 Height: 9.0 m
Data from the previous 72 hours. | See also: Recent months at Flinders Island Airport
Date/Time
EDT
Wind Sea
Height
m
Swell Vis
km
Cloud Weather Temp
°C
Press
hPa
Rain since
9am
mm
Dir  Spd
kts
Gust
kts
Height
m
Period
s
Dir
16/01:30am W 26 32 - - - - 10 Partly cloudy - 11.5 1010.3 0.2
16/01:00am W 27 37 - - - - 10 Partly cloudy - 11.6 1010.4 0.2
16/12:58am W 27 37 - - - - 10 Partly cloudy - 11.7 1010.3 0.2
16/12:30am WSW 30 37 - - - - 10 Partly cloudy - 11.8 1010.3 0.2
16/12:00am W 29 35 - - - - 10 Mostly clear - 11.7 1010.0 0.2
 
Date/Time
EDT
Wind Sea
Height
m
Swell Vis
km
Cloud Weather Temp
°C
Press
hPa
Rain since
9am
mm
Dir  Spd
kts
Gust
kts
Height
m
Period
s
Dir
15/11:30pm W 28 34 - - - - 10 Partly cloudy - 11.7 1010.0 0.2
15/11:00pm W 26 34 - - - - 10 Partly cloudy - 11.6 1010.1 0.2
15/10:30pm W 28 35 - - - - 10 Partly cloudy - 11.9 1009.9 0.2
15/10:00pm W 28 34 - - - - 10 Partly cloudy - 11.8 1009.7 0.2
15/09:30pm W 29 35 - - - - 10 Partly cloudy - 12.1 1009.1 0.2
15/09:00pm W 29 36 - - - - 10 Cloudy - 12.1 1008.9 0.2
15/08:30pm W 29 39 - - - - 10 Partly cloudy - 12.1 1008.4 0.2
15/08:22pm W 28 39 - - - - 10 Partly cloudy - 12.2 1008.3 0.2
15/08:00pm W 27 34 - - - - 10 Partly cloudy - 12.3 1007.8 0.2
15/07:30pm W 31 38 - - - - 10 - - 12.7 1007.3 0.2
15/07:00pm W 32 39 - - - - 10 - - 13.1 1006.8 0.2
15/06:30pm W 29 37 - - - - 10 - - 13.5 1006.3 0.2
15/06:00pm W 31 38 - - - - 10 Partly cloudy - 13.7 1005.8 0.2
15/05:38pm W 30 40 - - - - 10 Partly cloudy - 14.3 1005.8 0.2
15/05:30pm W 31 40 - - - - 10 Partly cloudy - 13.9 1005.6 0.2
15/05:00pm W 29 39 - - - - 10 Partly cloudy - 14.2 1005.1 0.2
15/04:56pm W 27 37 - - - - 10 Partly cloudy - 14.3 1005.1 0.2
15/04:30pm W 28 36 - - - - 9 Partly cloudy - 13.0 1004.9 0.2
15/04:00pm W 27 38 - - - - 10 Partly cloudy - 14.7 1004.7 0.2
15/03:44pm W 27 37 - - - - 10 Partly cloudy - 14.6 1004.6 0.2
15/03:30pm W 27 35 - - - - 10 Partly cloudy - 14.6 1004.6 0.2
15/03:02pm W 26 37 - - - - 10 Partly cloudy - 15.0 1004.4 0.2
15/03:00pm W 26 35 - - - - 10 Cloudy - 15.0 1004.4 0.2
15/02:31pm W 26 36 - - - - 7 Partly cloudy - 13.8 1004.3 0.2
15/02:30pm W 27 36 - - - - 7 Partly cloudy - 13.3 1004.3 0.2
15/02:17pm W 25 37 - - - - 10 Partly cloudy - 13.9 1004.2 0.2
15/02:00pm W 26 33 - - - - 10 Partly cloudy - 14.2 1004.3 0.2
15/01:30pm W 26 31 - - - - 10 Partly cloudy - 14.8 1004.1 0.2
15/01:00pm W 26 32 - - - - 10 Partly cloudy - 15.0 1004.0 0.2
15/12:39pm W 29 37 - - - - 10 Partly cloudy - 13.4 1004.1 0.2
15/12:30pm W 28 35 - - - - 10 Partly cloudy - 13.6 1004.1 0.2
15/12:06pm W 26 32 - - - - 10 Partly cloudy - 14.6 1004.1 0.2
15/12:00pm W 26 33 - - - - 10 Cloudy - 14.7 1004.1 0.2
15/11:30am W 27 34 - - - - 10 Partly cloudy - 14.3 1004.1 0.2
15/11:27am W 27 34 - - - - 10 Partly cloudy - 14.0 1004.0 0.2
15/11:05am W 27 34 - - - - 10 Partly cloudy - 14.0 1004.1 0.2
15/11:00am W 29 36 - - - - 10 Partly cloudy - 13.6 1004.1 0.2
15/10:48am W 26 31 - - - - 5 Partly cloudy - 13.0 1004.0 0.2
15/10:36am W 26 35 - - - - 10 Partly cloudy - 13.8 1004.0 0.0
15/10:34am W 25 35 - - - - 10 Partly cloudy - 13.8 1004.0 0.0
15/10:30am W 24 32 - - - - 10 Partly cloudy - 14.3 1004.0 0.0
15/10:00am W 24 30 - - - - 10 Partly cloudy - 13.9 1004.2 0.0
15/09:48am W 23 29 - - - - 10 Partly cloudy - 14.2 1004.3 0.0
15/09:30am W 25 31 - - - - 10 Partly cloudy - 14.3 1004.3 0.0
15/09:20am W 24 33 - - - - 10 Partly cloudy - 14.3 1004.5 0.0
15/09:10am WNW 24 31 - - - - 10 Partly cloudy - 13.9 1004.5 0.0
15/09:00am W 22 28 - - - - 10 Cloudy - 13.5 1004.7 0.8
15/08:30am WNW 21 30 - - - - 10 Partly cloudy - 13.5 1004.3 0.8
15/08:00am WNW 22 30 - - - - 10 Partly cloudy - 13.3 1004.4 0.8
15/07:51am WNW 23 31 - - - - 10 Partly cloudy - 13.1 1004.4 0.8
15/07:30am W 21 31 - - - - 10 Partly cloudy - 12.9 1004.5 0.8
15/07:29am W 21 31 - - - - 10 Partly cloudy - 12.8 1004.5 0.8
15/07:00am WNW 22 30 - - - - 10 Partly cloudy - 12.9 1004.4 0.8
15/06:39am WNW 22 29 - - - - 10 Partly cloudy - 12.6 1004.3 0.8
15/06:30am WNW 24 33 - - - - 10 Partly cloudy - 12.6 1004.2 0.8
15/06:22am WNW 25 33 - - - - 10 Partly cloudy - 12.8 1004.2 0.8
15/06:16am WNW 24 34 - - - - 10 Partly cloudy - 12.7 1004.1 0.8
15/06:11am WNW 23 34 - - - - 10 Partly cloudy - 12.7 1004.1 0.8
15/06:03am WNW 23 32 - - - - 10 Partly cloudy - 12.5 1004.0 0.8
15/06:00am WNW 24 32 - - - - 10 Cloudy Recent precip. 12.5 1004.0 0.8
15/05:49am WNW 22 32 - - - - 10 Partly cloudy - 12.2 1003.9 0.8
15/05:42am WNW 21 27 - - - - 10 Partly cloudy - 12.1 1004.0 0.8
15/05:39am WNW 21 27 - - - - 10 Partly cloudy - 12.1 1004.0 0.8
15/05:34am WNW 20 26 - - - - 10 Partly cloudy - 11.9 1003.9 0.8
15/05:30am W 21 28 - - - - 4 Partly cloudy - 11.9 1003.8 0.8
15/05:22am W 24 30 - - - - 5 Partly cloudy - 12.2 1003.9 0.8
15/05:20am WNW 24 30 - - - - 10 Partly cloudy - 12.4 1003.9 0.4
15/05:00am WNW 25 32 - - - - 8 Partly cloudy - 12.3 1003.9 0.4
15/04:30am WNW 23 33 - - - - 10 Partly cloudy - 12.7 1003.9 0.4
15/04:20am WNW 24 36 - - - - 10 Partly cloudy - 12.7 1004.0 0.4
15/04:00am WNW 23 29 - - - - 10 Partly cloudy - 12.7 1003.9 0.4
15/03:43am WNW 23 33 - - - - 10 Partly cloudy - 12.5 1004.1 0.4
15/03:30am WNW 25 33 - - - - 10 Partly cloudy - 12.4 1004.0 0.4
15/03:10am WNW 21 28 - - - - 10 Partly cloudy - 12.1 1004.2 0.4
15/03:05am WNW 23 29 - - - - 10 Partly cloudy - 11.9 1004.1 0.4
15/03:00am WNW 25 34 - - - - 5 Cloudy Recent precip. 11.7 1004.1 0.4
15/02:49am W 25 34 - - - - 5 Partly cloudy - 12.0 1004.3 0.4
15/02:42am W 25 35 - - - - 10 Partly cloudy - 12.3 1004.4 0.2
15/02:41am W 26 35 - - - - 10 Partly cloudy - 12.3 1004.5 0.2
15/02:30am W 27 38 - - - - 4 Partly cloudy - 12.0 1004.4 0.2
15/02:21am WNW 26 36 - - - - 5 Partly cloudy - 12.6 1004.5 0.2
15/02:00am WNW 23 33 - - - - 10 Partly cloudy - 13.0 1004.5 0.0
15/01:35am WNW 21 31 - - - - 10 Partly cloudy - 12.9 1004.8 0.0
15/01:30am WNW 21 29 - - - - 10 Partly cloudy - 12.9 1004.9 0.0
15/01:26am WNW 21 29 - - - - 10 Partly cloudy - 12.8 1004.9 0.0
15/01:21am WNW 22 29 - - - - 10 Partly cloudy - 12.5 1005.0 0.0
15/01:00am WNW 26 38 - - - - 10 Cloudy - 12.9 1005.3 0.0
15/12:36am WNW 22 32 - - - - 10 Partly cloudy - 12.7 1005.6 0.0
15/12:30am WNW 23 33 - - - - 10 Partly cloudy - 12.7 1005.7 0.0
15/12:25am WNW 23 33 - - - - 8 Partly cloudy - 12.6 1005.8 0.0
15/12:22am WNW 24 31 - - - - 8 Partly cloudy - 12.7 1005.8 0.0
15/12:09am WNW 26 36 - - - - 10 Partly cloudy - 12.9 1006.1 0.0
15/12:00am WNW 25 32 - - - - 10 Cloudy - 12.8 1006.1 0.0
 
Date/Time
EDT
Wind Sea
Height
m
Swell Vis
km
Cloud Weather Temp
°C
Press
hPa
Rain since
9am
mm
Dir  Spd
kts
Gust
kts
Height
m
Period
s
Dir
14/11:48pm WNW 25 36 - - - - 10 Partly cloudy - 12.8 1006.2 0.0
14/11:30pm WNW 23 29 - - - - 10 Partly cloudy - 12.4 1006.4 0.0
14/11:00pm W 23 31 - - - - 5 Partly cloudy - 12.4 1006.7 0.0
14/10:55pm W 22 30 - - - - 5 Partly cloudy - 12.5 1006.8 0.0
14/10:44pm W 25 31 - - - - 10 Partly cloudy - 12.6 1006.8 0.0
14/10:30pm W 27 34 - - - - 9 Partly cloudy - 12.6 1007.1 0.0
14/10:00pm WNW 24 31 - - - - 10 Cloudy - 13.5 1007.2 0.0
14/09:30pm WNW 23 30 - - - - 10 Partly cloudy - 13.3 1007.2 0.0
14/09:00pm WNW 21 29 - - - - 10 Cloudy - 13.4 1007.2 0.0
14/08:30pm WNW 25 32 - - - - 10 Partly cloudy - 13.3 1007.3 0.0
14/08:18pm WNW 24 30 - - - - 10 Partly cloudy - 13.4 1007.2 0.0
14/08:00pm WNW 23 35 - - - - 10 Partly cloudy - 13.4 1007.3 0.0
14/07:30pm WNW 24 34 - - - - 10 Partly cloudy - 13.6 1007.4 0.0
14/07:00pm WNW 24 34 - - - - 10 Partly cloudy - 13.5 1007.4 0.0
14/06:30pm W 21 31 - - - - 7 Partly cloudy - 13.4 1007.3 0.0
14/06:00pm WNW 22 29 - - - - 10 Cloudy - 13.6 1007.5 0.0
14/05:51pm WNW 23 33 - - - - 8 Partly cloudy - 13.5 1007.5 0.0
14/05:30pm WNW 25 33 - - - - 10 Partly cloudy - 13.9 1007.5 0.0
14/05:15pm WNW 25 35 - - - - 10 Partly cloudy - 14.0 1007.5 0.0
14/05:00pm WNW 25 33 - - - - 10 Partly cloudy - 13.8 1007.3 0.0
14/04:53pm W 24 32 - - - - 7 Partly cloudy - 13.2 1007.2 0.0
14/04:30pm WNW 27 33 - - - - 9 Partly cloudy - 13.7 1007.3 0.0
14/04:06pm WNW 25 32 - - - - 9 Partly cloudy - 14.7 1007.3 0.0
14/04:00pm WNW 26 33 - - - - 9 Partly cloudy - 14.3 1007.5 0.0
14/03:41pm WNW 27 37 - - - - 10 Partly cloudy - 14.5 1007.6 0.0
14/03:30pm WNW 28 35 - - - - 10 Partly cloudy - 15.1 1007.5 0.0
14/03:00pm WNW 27 35 - - - - 10 Cloudy - 15.6 1007.7 0.0
14/02:33pm WNW 27 36 - - - - 10 Partly cloudy - 15.2 1007.9 0.0
14/02:30pm WNW 28 36 - - - - 10 Partly cloudy - 15.2 1007.8 0.0
14/02:00pm WNW 28 36 - - - - 10 Partly cloudy - 15.1 1007.6 0.0
14/01:30pm WNW 26 35 - - - - 10 Partly cloudy - 15.2 1007.8 0.0
14/01:00pm WNW 26 36 - - - - 10 Partly cloudy - 15.0 1008.0 0.0
14/12:53pm WNW 25 36 - - - - 10 Partly cloudy - 15.2 1008.2 0.0
14/12:44pm WNW 25 32 - - - - 10 Partly cloudy - 15.0 1008.2 0.0
14/12:32pm W 26 36 - - - - 10 Partly cloudy - 15.3 1008.2 0.0
14/12:30pm W 27 36 - - - - 10 Partly cloudy - 15.4 1008.2 0.0
14/12:01pm W 23 34 - - - - 10 Cloudy - 14.7 1008.4 0.0
14/12:00pm W 23 32 - - - - 10 Mostly cloudy - 14.7 1008.3 0.0
14/11:36am WNW 26 37 - - - - 10 Cloudy - 14.5 1008.3 0.0
14/11:30am WNW 26 32 - - - - 10 Cloudy - 14.3 1008.4 0.0
14/11:00am WNW 24 31 - - - - 10 Partly cloudy - 15.3 1008.4 0.0
14/10:43am WNW 24 34 - - - - 10 Partly cloudy - 14.8 1008.4 0.0
14/10:30am W 25 32 - - - - 10 Partly cloudy - 14.4 1008.5 0.0
14/10:00am W 24 32 - - - - 10 Partly cloudy - 14.0 1008.6 0.0
14/09:41am W 23 31 - - - - 10 Partly cloudy - 13.3 1008.7 0.0
14/09:30am W 23 30 - - - - 5 Partly cloudy - 13.1 1008.6 0.0
14/09:10am W 24 31 - - - - 5 Partly cloudy - 13.0 1008.9 0.0
14/09:00am W 24 34 - - - - 10 Cloudy - 13.6 1008.7 1.2
14/08:36am W 23 33 - - - - 10 Partly cloudy - 13.4 1008.6 1.2
14/08:30am W 23 31 - - - - 10 Partly cloudy - 13.4 1008.6 1.2
14/08:00am W 21 31 - - - - 10 Cloudy - 13.1 1008.6 1.2
14/07:55am WNW 21 31 - - - - 10 Partly cloudy - 13.0 1008.5 1.2
14/07:30am W 24 31 - - - - 10 Partly cloudy - 12.6 1008.4 1.2
14/07:00am W 22 29 - - - - 10 Partly cloudy - 12.5 1008.3 1.2
14/06:49am W 20 26 - - - - 10 Partly cloudy - 12.3 1008.2 1.2
14/06:43am W 19 29 - - - - 7 Partly cloudy - 12.2 1008.2 1.2
14/06:35am WNW 22 29 - - - - 5 Partly cloudy - 12.3 1008.3 1.2
14/06:30am WNW 21 29 - - - - 10 Partly cloudy - 12.5 1008.2 1.2
14/06:23am W 20 30 - - - - 10 Partly cloudy - 12.6 1008.2 1.2
14/06:00am W 21 27 - - - - 10 Mostly cloudy - 12.7 1008.1 1.2
14/05:30am W 22 29 - - - - 10 Partly cloudy - 12.5 1007.9 1.2
14/05:13am W 21 29 - - - - 10 Partly cloudy - 12.7 1007.9 1.2
14/05:00am W 23 32 - - - - 10 Partly cloudy - 12.4 1007.8 1.2
14/04:40am W 22 28 - - - - 10 Partly cloudy - 12.4 1007.8 1.2
14/04:30am W 22 29 - - - - 10 Partly cloudy - 12.4 1008.1 1.2
14/04:00am W 22 29 - - - - 10 Partly cloudy - 12.4 1008.3 1.2
14/03:59am W 22 29 - - - - 10 Partly cloudy - 12.4 1008.3 1.2
14/03:53am W 23 29 - - - - 10 Partly cloudy - 12.2 1008.4 1.2
14/03:30am W 22 28 - - - - 10 Partly cloudy - 12.2 1008.5 1.2
14/03:12am W 20 27 - - - - 10 Partly cloudy - 12.4 1008.7 1.2
14/03:00am W 20 26 - - - - 10 Partly cloudy - 12.2 1008.8 1.2
14/02:44am W 23 29 - - - - 10 Partly cloudy - 12.3 1008.9 1.2
14/02:30am W 23 30 - - - - 10 Partly cloudy - 12.4 1009.2 1.2
14/02:08am W 24 30 - - - - 10 Partly cloudy - 12.5 1009.0 1.2
14/02:00am W 25 30 - - - - 10 Partly cloudy - 12.4 1009.0 1.2
14/01:34am W 25 30 - - - - 10 Partly cloudy - 12.3 1009.0 1.2
14/01:30am W 25 30 - - - - 10 Partly cloudy - 12.3 1009.1 1.2
14/01:17am W 25 29 - - - - 10 Partly cloudy - 12.3 1009.3 1.2
14/01:14am W 24 29 - - - - 10 Partly cloudy - 12.3 1009.3 1.2
14/01:00am W 25 31 - - - - 10 Partly cloudy - 12.3 1009.3 1.2
14/12:57am W 25 31 - - - - 10 Partly cloudy - 12.2 1009.4 1.2
14/12:30am W 25 31 - - - - 10 Partly cloudy - 12.3 1009.5 1.2
14/12:00am W 27 36 - - - - 10 Mostly clear - 12.4 1009.5 1.2
 
Date/Time
EDT
Wind Sea
Height
m
Swell Vis
km
Cloud Weather Temp
°C
Press
hPa
Rain since
9am
mm
Dir  Spd
kts
Gust
kts
Height
m
Period
s
Dir
13/11:57pm W 29 39 - - - - 10 Partly cloudy - 12.4 1009.5 1.2
13/11:30pm W 31 38 - - - - 10 Partly cloudy - 12.4 1009.2 1.2
13/11:00pm W 29 36 - - - - 10 Partly cloudy - 12.4 1009.3 1.2
13/10:30pm W 27 33 - - - - 10 Partly cloudy - 12.2 1008.9 1.2
13/10:00pm W 27 34 - - - - 10 Partly cloudy - 12.4 1008.9 1.2
13/09:40pm W 28 39 - - - - 10 - - 12.5 1008.8 1.2
13/09:30pm W 27 31 - - - - 10 - - 12.5 1008.8 1.2
13/09:00pm W 27 34 - - - - 10 - - 12.6 1008.3 1.2
13/08:57pm W 27 37 - - - - 10 - - 12.6 1008.2 1.2
13/08:30pm W 28 35 - - - - 10 Partly cloudy - 12.8 1007.7 1.2
13/08:00pm W 27 32 - - - - 10 Partly cloudy - 12.7 1007.6 1.2
13/07:30pm W 30 38 - - - - 10 - - 13.1 1007.1 1.2
13/07:08pm W 30 40 - - - - 10 Partly cloudy - 13.3 1006.3 1.2
13/07:00pm W 30 40 - - - - 10 Partly cloudy - 13.3 1006.1 1.2
13/06:30pm W 29 40 - - - - 10 Partly cloudy - 13.3 1005.9 1.2
13/06:29pm W 29 40 - - - - 10 Partly cloudy - 13.4 1005.9 1.2
13/06:00pm W 31 42 - - - - 10 Mostly cloudy Recent precip. 13.4 1005.5 1.2
13/05:39pm W 31 41 - - - - 10 Partly cloudy - 13.1 1005.1 1.2
13/05:30pm W 30 39 - - - - 7 Partly cloudy - 12.9 1005.0 1.2
13/05:00pm W 31 41 - - - - 3 Partly cloudy - 12.6 1005.3 0.2
13/04:51pm W 28 42 - - - - 5 Partly cloudy - 12.9 1005.3 0.2
13/04:30pm W 32 42 - - - - 8 Partly cloudy - 13.3 1004.9 0.2
13/04:16pm W 29 39 - - - - 10 Cloudy - 13.3 1004.6 0.2
13/04:00pm WNW 31 41 - - - - 5 Cloudy - 12.8 1004.7 0.2
13/03:32pm WNW 31 41 - - - - 4 Partly cloudy - 12.7 1004.8 0.0
13/03:30pm WNW 32 41 - - - - 5 Cloudy - 12.7 1004.8 0.0
13/03:26pm WNW 32 40 - - - - 5 Cloudy - 12.9 1004.8 0.0
13/03:00pm WNW 34 44 - - - - 9 Mostly cloudy - 13.5 1004.8 0.0
13/02:30pm WNW 30 42 - - - - 8 Cloudy - 12.6 1005.3 0.0
13/02:00pm WNW 33 43 - - - - 8 Partly cloudy - 12.1 1005.7 0.0
13/01:52pm WNW 32 43 - - - - 10 Partly cloudy - 12.2 1005.7 0.0
13/01:48pm WNW 32 40 - - - - 8 Partly cloudy - 12.0 1005.9 0.0
13/01:34pm WNW 31 39 - - - - 4 Partly cloudy - 11.7 1005.9 0.0
13/01:30pm WNW 29 38 - - - - 4 Partly cloudy - 11.9 1006.1 0.0
13/01:28pm WNW 29 38 - - - - 5 Partly cloudy - 12.0 1006.1 0.0
13/01:24pm WNW 28 39 - - - - 10 Partly cloudy - 12.5 1006.0 0.0
13/01:21pm WNW 29 39 - - - - 10 Partly cloudy - 12.6 1006.1 0.0
13/01:09pm WNW 30 38 - - - - 5 Partly cloudy - 12.0 1006.3 0.0
13/01:00pm WNW 30 40 - - - - 9 Partly cloudy - 12.7 1006.2 0.0
13/12:32pm WNW 29 40 - - - - 10 Partly cloudy - 13.3 1006.1 0.0
13/12:30pm WNW 29 38 - - - - 10 Partly cloudy - 13.3 1006.2 0.0
13/12:00pm W 29 42 - - - - 10 Cloudy - 13.6 1006.7 0.0
13/11:54am WNW 30 42 - - - - 10 Partly cloudy - 14.1 1006.7 0.0
13/11:30am WNW 29 38 - - - - 10 Partly cloudy - 14.3 1006.7 0.0
13/11:16am WNW 27 38 - - - - 10 Partly cloudy - 13.4 1007.1 0.0
13/11:00am W 28 36 - - - - 10 Partly cloudy - 13.4 1007.2 0.0
13/10:30am W 24 34 - - - - 10 Partly cloudy - 13.3 1007.1 0.0
13/10:00am W 27 37 - - - - 10 Partly cloudy - 13.4 1007.2 0.0
13/09:49am W 29 39 - - - - 10 Partly cloudy - 13.6 1007.3 0.0
13/09:30am W 29 35 - - - - 10 Partly cloudy - 13.2 1007.5 0.0
13/09:19am W 27 37 - - - - 10 Partly cloudy - 13.0 1007.7 0.0
13/09:00am W 29 37 - - - - 10 Cloudy - 12.4 1007.6 1.2
13/08:55am W 29 39 - - - - 10 Partly cloudy - 12.8 1007.5 1.2
13/08:30am W 30 38 - - - - 10 Partly cloudy - 12.1 1007.2 1.2
13/08:00am W 26 33 - - - - 10 Partly cloudy - 11.4 1007.6 1.2
13/07:38am W 30 40 - - - - 10 Partly cloudy - 10.2 1007.6 1.2
13/07:30am WSW 29 37 - - - - 10 Partly cloudy - 10.8 1007.4 1.2
13/07:00am WSW 29 38 - - - - 10 Partly cloudy - 10.6 1007.3 1.2
13/06:30am W 29 34 - - - - 10 Partly cloudy - 10.1 1007.0 1.2
13/06:00am W 28 35 - - - - 10 Cloudy Recent precip. 9.7 1006.7 1.2
13/05:44am W 26 32 - - - - 10 Partly cloudy - 9.5 1006.7 1.2
13/05:30am W 28 35 - - - - 5 Partly cloudy - 9.3 1006.5 1.2
13/05:27am W 29 38 - - - - 5 Partly cloudy - 9.3 1006.4 1.2
13/05:13am WSW 30 40 - - - - 10 Partly cloudy - 10.4 1006.3 0.8
13/05:00am WSW 30 38 - - - - 10 Partly cloudy - 10.2 1006.4 0.8
13/04:33am WSW 29 39 - - - - 10 Partly cloudy - 10.1 1006.3 0.8
13/04:30am WSW 29 35 - - - - 10 Partly cloudy - 10.0 1006.3 0.8
13/04:00am W 28 35 - - - - 10 Partly cloudy - 10.3 1006.3 0.8
13/03:30am WSW 30 36 - - - - 10 Partly cloudy - 10.2 1006.3 0.8
13/03:00am W 31 39 - - - - 10 Cloudy - 10.2 1006.3 0.8
13/02:40am W 29 39 - - - - 10 Partly cloudy - 10.4 1006.4 0.8
13/02:30am WSW 31 38 - - - - 10 Partly cloudy - 10.3 1006.4 0.8
13/02:15am WSW 29 39 - - - - 10 Partly cloudy - 10.1 1006.4 0.8
13/02:00am W 30 38 - - - - 10 Partly cloudy - 10.3 1006.4 0.8

Other formats

Comma delimited format used in spreadsheet applications
http://www.bom.gov.au/fwo/IDT60701/IDT60701.94980.axf

JavaScript Object Notation format (JSON) in row-major order
http://www.bom.gov.au/fwo/IDT60701/IDT60701.94980.json

Data quality

Most of these data are generated automatically and are frequently updated. Quality checks on data are not normally performed. It is possible for incorrect values to appear. Refer to information at About Latest Weather Observations and please check the disclaimer before using these data.